Time;durP1;ratioP1;P1;durP2;ratioP2;P2;SDS_P1;SDS_P2;PMS_P1;PMS_P2;Temp;Humidity;BMP_temperature;BMP_pressure;BME280_temperature;BME280_humidity;BME280_pressure;Samples;Min_cycle;Max_cycle;Signal;HPM_P1;HPM_P2
2023/09/12 00:04:50;;;;;;;14.23;8.67;;;;;;;;;;10529905;28;20493;-85
2023/09/12 00:09:55;;;;;;;13.50;8.02;;;;;;;;;;10534476;28;20155;-89
2023/09/12 00:15:00;;;;;;;12.70;6.85;;;;;;;;;;10512569;28;20105;-86
2023/09/12 00:20:06;;;;;;;13.40;8.25;;;;;;;;;;10521438;28;20047;-84
2023/09/12 00:25:10;;;;;;;17.10;7.70;;;;;;;;;;10535989;28;20112;-84
2023/09/12 00:30:14;;;;;;;12.07;7.10;;;;;;;;;;10532074;28;20074;-83
2023/09/12 00:35:17;;;;;;;11.95;7.10;;;;;;;;;;10534657;28;20491;-84
2023/09/12 00:40:21;;;;;;;15.65;8.10;;;;;;;;;;10538343;28;20040;-83
2023/09/12 00:45:23;;;;;;;13.45;7.72;;;;;;;;;;10533532;28;20067;-83
2023/09/12 00:50:27;;;;;;;15.23;7.97;;;;;;;;;;10528875;28;20131;-84
2023/09/12 00:55:32;;;;;;;15.40;8.68;;;;;;;;;;10532958;28;20105;-84
2023/09/12 01:00:36;;;;;;;15.52;8.20;;;;;;;;;;10532410;28;20083;-85
2023/09/12 01:05:39;;;;;;;15.70;9.07;;;;;;;;;;10535304;28;20345;-86
2023/09/12 01:10:49;;;;;;;15.18;9.00;;;;;;;;;;10524520;28;20149;-85
2023/09/12 01:15:52;;;;;;;17.08;9.52;;;;;;;;;;10512407;28;20139;-85
2023/09/12 01:21:09;;;;;;;19.23;8.88;;;;;;;;;;10509053;28;20043;-84
2023/09/12 01:26:26;;;;;;;16.25;8.95;;;;;;;;;;10532272;28;20113;-84
2023/09/12 01:31:31;;;;;;;16.45;8.55;;;;;;;;;;10526935;28;20051;-88
2023/09/12 01:36:34;;;;;;;14.02;8.20;;;;;;;;;;10530677;28;20054;-83
2023/09/12 01:41:40;;;;;;;14.07;8.00;;;;;;;;;;10511821;28;20043;-87
2023/09/12 01:46:55;;;;;;;12.70;8.20;;;;;;;;;;10529310;28;20099;-85
2023/09/12 01:52:00;;;;;;;14.88;8.52;;;;;;;;;;10525596;28;20128;-85
2023/09/12 01:57:05;;;;;;;19.30;11.98;;;;;;;;;;10506957;28;20418;-85
2023/09/12 02:02:11;;;;;;;14.60;8.48;;;;;;;;;;10531253;28;20608;-84
2023/09/12 02:07:21;;;;;;;18.15;8.85;;;;;;;;;;10524476;28;20378;-84
2023/09/12 02:12:34;;;;;;;16.42;9.00;;;;;;;;;;10511370;28;20588;-85
2023/09/12 02:17:42;;;;;;;16.77;8.63;;;;;;;;;;10531465;28;20040;-85
2023/09/12 02:22:46;;;;;;;17.25;9.18;;;;;;;;;;10526007;28;20508;-86
2023/09/12 02:27:55;;;;;;;14.93;8.90;;;;;;;;;;10524602;28;20032;-86
2023/09/12 02:33:01;;;;;;;16.42;9.48;;;;;;;;;;10510979;28;20138;-85
2023/09/12 02:43:28;;;;;;;17.58;9.93;;;;;;;;;;10526044;28;20507;-87
2023/09/12 02:48:42;;;;;;;16.48;9.57;;;;;;;;;;10529535;28;20044;-86
2023/09/12 02:53:52;;;;;;;16.17;9.52;;;;;;;;;;10528922;28;20044;-85
2023/09/12 02:58:58;;;;;;;16.45;9.95;;;;;;;;;;10495820;28;20123;-85
2023/09/12 03:04:05;;;;;;;18.60;10.27;;;;;;;;;;10528467;28;20048;-84
2023/09/12 03:09:23;;;;;;;17.02;9.27;;;;;;;;;;10524599;28;20044;-84
2023/09/12 03:14:44;;;;;;;16.52;8.63;;;;;;;;;;10513520;28;20040;-84
2023/09/12 03:19:49;;;;;;;15.20;8.75;;;;;;;;;;10527040;28;20236;-87
2023/09/12 03:24:55;;;;;;;17.85;9.13;;;;;;;;;;10530528;28;20063;-87
2023/09/12 03:30:00;;;;;;;16.80;9.18;;;;;;;;;;10523611;28;20123;-82
2023/09/12 03:35:09;;;;;;;15.70;9.73;;;;;;;;;;10511636;28;20408;-82
2023/09/12 03:40:18;;;;;;;16.40;9.00;;;;;;;;;;10521621;28;20090;-83
2023/09/12 03:45:21;;;;;;;17.33;9.77;;;;;;;;;;10524398;28;20044;-82
2023/09/12 03:50:26;;;;;;;16.58;9.65;;;;;;;;;;10506118;28;20155;-83
2023/09/12 03:55:30;;;;;;;16.23;8.65;;;;;;;;;;10525009;28;20092;-83
2023/09/12 04:00:33;;;;;;;16.17;9.48;;;;;;;;;;10513752;28;20055;-83
2023/09/12 04:05:45;;;;;;;16.85;8.85;;;;;;;;;;10521506;28;20032;-83
2023/09/12 04:10:48;;;;;;;15.35;8.85;;;;;;;;;;10537672;28;20397;-83
2023/09/12 04:15:59;;;;;;;16.52;9.57;;;;;;;;;;10532322;28;20132;-84
2023/09/12 04:21:04;;;;;;;16.42;9.57;;;;;;;;;;10513646;28;20036;-84
2023/09/12 04:26:07;;;;;;;15.77;8.90;;;;;;;;;;10498974;28;20044;-83
2023/09/12 04:31:23;;;;;;;17.90;8.50;;;;;;;;;;10526537;28;20060;-84
2023/09/12 04:36:32;;;;;;;16.65;9.50;;;;;;;;;;10529211;28;20141;-86
2023/09/12 04:41:40;;;;;;;22.52;9.25;;;;;;;;;;10517641;28;20131;-86
2023/09/12 04:46:52;;;;;;;16.95;9.40;;;;;;;;;;10514479;28;20109;-86
2023/09/12 04:51:59;;;;;;;16.30;9.07;;;;;;;;;;10533496;28;20068;-85
2023/09/12 04:57:04;;;;;;;17.50;9.45;;;;;;;;;;10532036;28;20105;-83
2023/09/12 05:02:08;;;;;;;17.55;9.68;;;;;;;;;;10530195;28;20475;-84
2023/09/12 05:07:12;;;;;;;18.80;9.73;;;;;;;;;;10530045;28;20455;-84
2023/09/12 05:12:21;;;;;;;16.75;9.45;;;;;;;;;;10530253;28;20090;-84
2023/09/12 05:17:28;;;;;;;15.55;8.80;;;;;;;;;;10534835;28;20071;-85
2023/09/12 05:22:37;;;;;;;20.35;8.80;;;;;;;;;;10499277;28;20082;-81
2023/09/12 05:27:40;;;;;;;14.13;7.70;;;;;;;;;;10516611;28;20405;-84
2023/09/12 05:32:45;;;;;;;16.33;8.60;;;;;;;;;;10533416;28;20124;-85
2023/09/12 05:37:54;;;;;;;17.05;7.88;;;;;;;;;;10536376;28;20040;-85
2023/09/12 05:43:08;;;;;;;14.43;7.78;;;;;;;;;;10535516;28;20528;-86
2023/09/12 05:48:15;;;;;;;18.92;11.07;;;;;;;;;;10520058;28;20456;-83
2023/09/12 05:53:44;;;;;;;16.15;9.15;;;;;;;;;;10536782;28;20118;-87
2023/09/12 05:58:57;;;;;;;16.48;8.60;;;;;;;;;;10532286;28;20058;-86
2023/09/12 06:04:02;;;;;;;16.70;8.45;;;;;;;;;;10524762;28;20100;-82
2023/09/12 06:09:15;;;;;;;16.05;8.40;;;;;;;;;;10511020;28;20143;-82
2023/09/12 06:14:25;;;;;;;14.93;7.80;;;;;;;;;;10531032;28;20070;-86
2023/09/12 06:19:40;;;;;;;12.93;7.32;;;;;;;;;;10529388;28;20040;-79
2023/09/12 06:24:46;;;;;;;17.65;7.90;;;;;;;;;;10517403;28;20143;-77
2023/09/12 06:29:50;;;;;;;15.77;7.97;;;;;;;;;;10504791;28;20067;-77
2023/09/12 06:34:55;;;;;;;17.45;9.27;;;;;;;;;;10502188;28;20051;-76
2023/09/12 06:39:58;;;;;;;;;;;;;;;;;;10509459;28;20415;-77
2023/09/12 06:45:05;;;;;;;13.07;8.32;;;;;;;;;;10506109;28;19919;-76
2023/09/12 06:50:12;;;;;;;14.02;7.78;;;;;;;;;;10511747;28;20108;-77
2023/09/12 06:55:18;;;;;;;14.50;7.78;;;;;;;;;;10520435;28;20639;-77
2023/09/12 07:00:50;;;;;;;12.45;8.20;;;;;;;;;;10516945;28;20048;-77
2023/09/12 07:05:54;;;;;;;13.73;8.35;;;;;;;;;;10527265;28;20040;-78
2023/09/12 07:11:07;;;;;;;12.93;7.97;;;;;;;;;;10528329;28;20052;-77
2023/09/12 07:16:12;;;;;;;13.63;7.90;;;;;;;;;;10525528;28;20031;-77
2023/09/12 07:21:17;;;;;;;11.07;7.63;;;;;;;;;;10526906;28;20043;-75
2023/09/12 07:26:22;;;;;;;10.32;7.50;;;;;;;;;;10503016;28;20434;-83
2023/09/12 07:31:34;;;;;;;12.15;8.15;;;;;;;;;;10526199;28;20071;-84
2023/09/12 07:36:38;;;;;;;10.82;7.45;;;;;;;;;;10524849;28;20044;-84
2023/09/12 07:41:44;;;;;;;11.48;8.23;;;;;;;;;;10488507;28;20040;-84
2023/09/12 07:46:55;;;;;;;9.68;7.80;;;;;;;;;;10524770;28;20081;-86
2023/09/12 07:51:58;;;;;;;11.88;7.85;;;;;;;;;;10521380;28;20127;-86
2023/09/12 07:57:19;;;;;;;10.00;7.23;;;;;;;;;;10521739;28;20063;-84
2023/09/12 08:02:23;;;;;;;10.43;7.47;;;;;;;;;;10525533;28;20046;-84
2023/09/12 08:07:27;;;;;;;11.60;7.65;;;;;;;;;;10502497;28;20490;-83
2023/09/12 08:12:35;;;;;;;9.43;7.20;;;;;;;;;;10488092;28;20382;-83
2023/09/12 08:17:51;;;;;;;17.10;8.20;;;;;;;;;;10501616;28;20040;-82
2023/09/12 08:22:58;;;;;;;11.25;7.55;;;;;;;;;;10508643;28;20374;-81
2023/09/12 08:28:03;;;;;;;8.50;7.68;;;;;;;;;;10494712;28;20105;-82
2023/09/12 08:33:12;;;;;;;9.48;6.63;;;;;;;;;;10516270;28;20955;-82
2023/09/12 08:38:36;;;;;;;8.25;7.43;;;;;;;;;;10495751;28;20040;-82
2023/09/12 08:43:41;;;;;;;8.60;7.07;;;;;;;;;;10498732;28;20052;-82
2023/09/12 08:48:56;;;;;;;10.52;7.70;;;;;;;;;;10503261;28;20033;-82
2023/09/12 08:54:03;;;;;;;9.70;7.93;;;;;;;;;;10520189;28;20523;-80
2023/09/12 08:59:11;;;;;;;12.10;7.70;;;;;;;;;;10528182;28;20129;-81
2023/09/12 09:04:32;;;;;;;7.95;7.15;;;;;;;;;;10494027;28;20106;-80
2023/09/12 09:09:40;;;;;;;9.75;7.10;;;;;;;;;;10529026;28;20037;-81
2023/09/12 09:14:44;;;;;;;8.73;7.80;;;;;;;;;;10511200;28;20051;-80
2023/09/12 09:20:09;;;;;;;9.85;8.40;;;;;;;;;;10521587;28;20040;-80
2023/09/12 09:25:15;;;;;;;10.75;7.35;;;;;;;;;;10492499;28;20078;-81
2023/09/12 09:30:42;;;;;;;9.23;7.22;;;;;;;;;;10494606;28;20486;-79
2023/09/12 09:36:03;;;;;;;8.25;7.10;;;;;;;;;;10524304;28;20123;-79
2023/09/12 09:41:07;;;;;;;8.82;6.95;;;;;;;;;;10501756;28;20438;-80
2023/09/12 09:46:16;;;;;;;7.70;6.90;;;;;;;;;;10516657;28;20481;-78
2023/09/12 09:51:26;;;;;;;9.57;7.82;;;;;;;;;;10518044;28;20069;-79
2023/09/12 09:56:47;;;;;;;8.13;6.47;;;;;;;;;;10528686;28;20064;-79
2023/09/12 10:01:52;;;;;;;7.80;6.85;;;;;;;;;;10510267;28;20040;-79
2023/09/12 10:07:05;;;;;;;7.70;6.75;;;;;;;;;;10519506;28;20458;-80
2023/09/12 10:12:13;;;;;;;8.15;6.78;;;;;;;;;;10521699;28;20470;-79
2023/09/12 10:17:27;;;;;;;8.30;6.75;;;;;;;;;;10503302;28;20072;-79
2023/09/12 10:22:48;;;;;;;8.38;6.80;;;;;;;;;;10523481;28;20075;-79
2023/09/12 10:27:53;;;;;;;10.40;7.03;;;;;;;;;;10508826;28;20044;-79
2023/09/12 10:33:09;;;;;;;13.77;7.47;;;;;;;;;;10509693;28;20047;-78
2023/09/12 10:38:25;;;;;;;8.82;7.30;;;;;;;;;;10498849;28;20085;-83
2023/09/12 10:43:33;;;;;;;7.95;7.07;;;;;;;;;;10510580;28;20500;-82
2023/09/12 10:48:40;;;;;;;8.25;6.65;;;;;;;;;;10525047;28;20069;-84
2023/09/12 10:53:53;;;;;;;7.88;6.35;;;;;;;;;;10499876;28;20050;-81
2023/09/12 10:59:18;;;;;;;9.93;6.65;;;;;;;;;;10519755;28;20640;-81
2023/09/12 11:04:41;;;;;;;8.57;6.13;;;;;;;;;;10518834;28;20060;-81
2023/09/12 11:10:19;;;;;;;8.60;6.45;;;;;;;;;;10490108;28;20055;-83
2023/09/12 11:15:22;;;;;;;8.75;6.30;;;;;;;;;;10522996;28;20068;-82
2023/09/12 11:20:26;;;;;;;7.10;6.40;;;;;;;;;;10505212;28;20052;-81
2023/09/12 11:25:33;;;;;;;6.90;5.72;;;;;;;;;;10507101;28;20040;-81
2023/09/12 11:30:55;;;;;;;7.85;6.30;;;;;;;;;;10525148;28;20445;-81
2023/09/12 11:36:03;;;;;;;8.00;6.22;;;;;;;;;;10488123;28;20109;-81
2023/09/12 11:41:09;;;;;;;12.27;7.05;;;;;;;;;;10527028;28;20056;-82
2023/09/12 11:46:13;;;;;;;10.27;6.95;;;;;;;;;;10491814;28;20040;-81
2023/09/12 11:51:27;;;;;;;9.55;6.35;;;;;;;;;;10502567;28;20050;-82
2023/09/12 12:01:57;;;;;;;8.10;6.22;;;;;;;;;;10526914;28;20425;-81
2023/09/12 12:07:02;;;;;;;9.00;6.63;;;;;;;;;;10526090;28;20036;-81
2023/09/12 12:12:11;;;;;;;10.40;6.85;;;;;;;;;;10523357;28;20409;-81
2023/09/12 12:17:19;;;;;;;8.82;7.07;;;;;;;;;;10506291;28;20074;-81
2023/09/12 12:22:27;;;;;;;7.13;5.72;;;;;;;;;;10512902;28;20056;-82
2023/09/12 12:32:55;;;;;;;7.97;6.82;;;;;;;;;;10526680;28;20109;-81
2023/09/12 12:38:16;;;;;;;10.32;6.65;;;;;;;;;;10531390;28;20539;-81
2023/09/12 12:43:22;;;;;;;8.15;6.47;;;;;;;;;;10527256;28;20040;-81
2023/09/12 12:48:32;;;;;;;7.75;6.72;;;;;;;;;;10529513;28;20063;-81
2023/09/12 12:53:39;;;;;;;8.32;6.30;;;;;;;;;;10503871;28;20468;-80
2023/09/12 12:58:51;;;;;;;8.38;6.50;;;;;;;;;;10507796;28;20040;-81
2023/09/12 13:03:57;;;;;;;8.17;6.23;;;;;;;;;;10525856;28;20043;-81
2023/09/12 13:09:11;;;;;;;8.50;6.45;;;;;;;;;;10498553;28;20417;-81
2023/09/12 13:14:19;;;;;;;7.75;6.40;;;;;;;;;;10504106;28;20123;-82
2023/09/12 13:19:33;;;;;;;7.82;6.20;;;;;;;;;;10503879;28;20072;-82
2023/09/12 13:24:39;;;;;;;10.32;6.22;;;;;;;;;;10506165;28;20149;-82
2023/09/12 13:29:47;;;;;;;13.18;6.43;;;;;;;;;;10521140;28;20048;-83
2023/09/12 13:34:53;;;;;;;7.60;6.40;;;;;;;;;;10507022;28;20079;-83
2023/09/12 13:40:08;;;;;;;7.50;6.07;;;;;;;;;;10505830;28;20043;-84
2023/09/12 13:45:13;;;;;;;9.13;6.47;;;;;;;;;;10505723;28;20436;-83
2023/09/12 13:50:23;;;;;;;10.37;5.17;;;;;;;;;;10518019;28;20036;-82
2023/09/12 13:55:26;;;;;;;9.90;5.78;;;;;;;;;;10523828;28;20043;-83
2023/09/12 14:01:02;;;;;;;7.40;5.10;;;;;;;;;;10506205;28;20091;-82
2023/09/12 14:06:11;;;;;;;12.13;6.45;;;;;;;;;;10520963;28;20428;-83
2023/09/12 14:11:16;;;;;;;8.40;6.03;;;;;;;;;;10521988;28;20051;-82
2023/09/12 14:16:43;;;;;;;12.93;6.20;;;;;;;;;;10522604;28;20036;-83
2023/09/12 14:21:53;;;;;;;9.38;6.30;;;;;;;;;;10520494;28;20491;-82
2023/09/12 14:27:01;;;;;;;11.50;6.60;;;;;;;;;;10508339;28;20062;-83
2023/09/12 14:32:15;;;;;;;12.93;6.22;;;;;;;;;;10485396;28;20052;-82
2023/09/12 14:37:26;;;;;;;13.30;6.90;;;;;;;;;;10498716;28;20508;-83
2023/09/12 14:42:31;;;;;;;16.98;7.70;;;;;;;;;;10515136;28;20101;-83
2023/09/12 14:47:38;;;;;;;9.13;6.40;;;;;;;;;;10519761;28;20573;-81
2023/09/12 14:52:43;;;;;;;10.38;6.30;;;;;;;;;;10520220;28;20447;-81
2023/09/12 14:57:47;;;;;;;9.07;5.85;;;;;;;;;;10524211;28;20147;-81
2023/09/12 15:02:54;;;;;;;12.43;6.15;;;;;;;;;;10500078;28;20044;-81
2023/09/12 15:08:00;;;;;;;8.57;6.13;;;;;;;;;;10520407;28;20378;-81
2023/09/12 15:13:06;;;;;;;12.55;6.22;;;;;;;;;;10516418;28;20059;-83
2023/09/12 15:18:13;;;;;;;9.40;6.40;;;;;;;;;;10523278;28;20040;-81
2023/09/12 15:23:16;;;;;;;12.13;6.32;;;;;;;;;;10499207;28;20044;-82
2023/09/12 15:28:24;;;;;;;9.18;5.88;;;;;;;;;;10517633;28;20127;-82
2023/09/12 15:33:31;;;;;;;9.80;5.95;;;;;;;;;;10497094;28;20123;-82
2023/09/12 15:38:37;;;;;;;11.27;6.88;;;;;;;;;;10516217;28;20036;-81
2023/09/12 15:49:17;;;;;;;10.02;6.10;;;;;;;;;;10520536;28;20047;-81
2023/09/12 15:54:27;;;;;;;11.27;7.18;;;;;;;;;;10506528;28;20428;-82
2023/09/12 15:59:35;;;;;;;11.02;5.75;;;;;;;;;;10510959;28;20041;-82
2023/09/12 16:04:41;;;;;;;11.40;6.40;;;;;;;;;;10526583;28;20044;-82
2023/09/12 16:09:48;;;;;;;12.68;6.07;;;;;;;;;;10538164;28;20068;-83
2023/09/12 16:15:06;;;;;;;9.20;5.75;;;;;;;;;;10541582;28;20053;-82
2023/09/12 16:20:28;;;;;;;13.13;6.43;;;;;;;;;;10501555;28;20151;-82
2023/09/12 16:25:34;;;;;;;10.75;6.80;;;;;;;;;;10513784;28;20097;-81
2023/09/12 16:30:44;;;;;;;12.45;6.47;;;;;;;;;;10513732;28;20050;-81
2023/09/12 16:35:49;;;;;;;10.95;6.18;;;;;;;;;;10512716;28;20125;-81
2023/09/12 16:40:54;;;;;;;13.35;7.28;;;;;;;;;;10494238;28;20479;-81
2023/09/12 16:45:59;;;;;;;10.32;7.07;;;;;;;;;;10504789;28;21184;-81
2023/09/12 16:51:05;;;;;;;12.88;7.57;;;;;;;;;;10524947;28;20560;-81
2023/09/12 16:56:12;;;;;;;11.87;7.50;;;;;;;;;;10529362;28;20959;-81
2023/09/12 17:01:18;;;;;;;12.95;8.10;;;;;;;;;;10505142;28;20824;-76
2023/09/12 17:06:26;;;;;;;12.75;7.88;;;;;;;;;;10524118;28;20856;-76
2023/09/12 17:11:31;;;;;;;12.38;7.55;;;;;;;;;;10489346;28;20460;-77
2023/09/12 17:16:36;;;;;;;13.60;7.87;;;;;;;;;;10508773;28;20585;-76
2023/09/12 17:21:40;;;;;;;12.75;7.90;;;;;;;;;;10520777;28;20442;-77
2023/09/12 17:27:06;;;;;;;12.27;7.90;;;;;;;;;;10480957;28;20498;-77
2023/09/12 17:32:13;;;;;;;13.30;8.33;;;;;;;;;;10437001;28;20492;-77
2023/09/12 17:37:18;;;;;;;12.68;8.60;;;;;;;;;;10433048;28;20427;-77
2023/09/12 17:42:25;;;;;;;13.57;8.10;;;;;;;;;;10435723;28;20508;-77
2023/09/12 17:47:35;;;;;;;16.05;8.55;;;;;;;;;;10440203;28;20432;-77
2023/09/12 17:52:40;;;;;;;16.50;9.52;;;;;;;;;;10435042;28;20436;-78
2023/09/12 17:57:48;;;;;;;17.20;9.07;;;;;;;;;;10428479;28;20540;-78
2023/09/12 18:02:56;;;;;;;14.77;9.70;;;;;;;;;;10434317;28;21047;-78
2023/09/12 18:08:16;;;;;;;15.40;8.85;;;;;;;;;;10419333;28;20410;-79
2023/09/12 18:13:23;;;;;;;14.15;9.05;;;;;;;;;;10431872;28;20600;-78
2023/09/12 18:18:28;;;;;;;16.52;9.30;;;;;;;;;;10429781;28;20945;-79
2023/09/12 18:23:36;;;;;;;12.43;8.50;;;;;;;;;;10436849;28;20866;-78
2023/09/12 18:28:42;;;;;;;16.33;11.07;;;;;;;;;;10503091;28;20430;-77
2023/09/12 18:33:46;;;;;;;16.17;10.63;;;;;;;;;;10520325;28;20440;-78
2023/09/12 18:38:51;;;;;;;13.63;7.97;;;;;;;;;;10520323;28;20422;-78
2023/09/12 18:44:03;;;;;;;13.63;8.30;;;;;;;;;;10522013;28;20450;-86
2023/09/12 18:49:16;;;;;;;11.30;7.18;;;;;;;;;;10518166;28;20467;-86
2023/09/12 18:54:24;;;;;;;11.05;5.32;;;;;;;;;;10528979;28;20047;-87
2023/09/12 18:59:32;;;;;;;9.32;5.15;;;;;;;;;;10512255;28;20100;-86
2023/09/12 19:04:42;;;;;;;12.30;6.10;;;;;;;;;;10538727;28;20054;-90
2023/09/12 19:09:51;;;;;;;12.35;5.95;;;;;;;;;;10524831;28;20044;-90
2023/09/12 19:15:15;;;;;;;15.15;7.75;;;;;;;;;;10515447;28;20512;-91
2023/09/12 19:20:26;;;;;;;9.65;5.22;;;;;;;;;;10530178;28;20059;-93
2023/09/12 19:25:33;;;;;;;11.63;5.97;;;;;;;;;;10525383;28;20066;-89
2023/09/12 19:30:52;;;;;;;13.05;6.85;;;;;;;;;;10513196;28;20032;-89
2023/09/12 19:36:16;;;;;;;11.88;5.70;;;;;;;;;;10543202;28;20068;-90
2023/09/12 19:41:21;;;;;;;12.93;7.20;;;;;;;;;;10537026;28;20032;-91
2023/09/12 19:46:30;;;;;;;10.48;5.72;;;;;;;;;;10528520;28;20151;-92
2023/09/12 19:51:45;;;;;;;11.10;6.30;;;;;;;;;;10505930;28;20044;-91
2023/09/12 19:56:50;;;;;;;10.05;5.43;;;;;;;;;;10502523;28;20063;-88
2023/09/12 20:07:49;;;;;;;14.05;7.20;;;;;;;;;;10519560;28;20076;-81
2023/09/12 20:12:56;;;;;;;3.78;2.30;;;;;;;;;;10519456;28;20039;-80
2023/09/12 20:18:06;;;;;;;10.18;5.38;;;;;;;;;;10506047;28;20086;-81
2023/09/12 20:28:49;;;;;;;;;;;;;;;;;;10502341;28;20470;-82
2023/09/12 20:33:54;;;;;;;8.30;4.28;;;;;;;;;;10512988;28;20086;-82
2023/09/12 20:44:46;;;;;;;6.45;3.58;;;;;;;;;;10526585;28;20094;-85
2023/09/12 20:50:25;;;;;;;6.95;3.90;;;;;;;;;;10524670;28;20044;-85
2023/09/12 20:55:39;;;;;;;8.48;3.83;;;;;;;;;;10531333;28;20074;-87
2023/09/12 21:00:48;;;;;;;5.30;2.05;;;;;;;;;;10508442;28;20405;-85
2023/09/12 21:05:56;;;;;;;3.47;2.30;;;;;;;;;;10532227;28;20043;-83
2023/09/12 21:10:59;;;;;;;4.60;2.72;;;;;;;;;;10515738;28;20036;-77
2023/09/12 21:16:04;;;;;;;5.63;2.85;;;;;;;;;;10523910;28;20485;-77
2023/09/12 21:21:08;;;;;;;;;;;;;;;;;;10517417;28;20054;-76
2023/09/12 21:26:17;;;;;;;6.32;2.95;;;;;;;;;;10506478;28;19919;-81
2023/09/12 21:31:25;;;;;;;7.13;4.10;;;;;;;;;;10506569;28;20431;-82
2023/09/12 21:36:37;;;;;;;6.07;3.90;;;;;;;;;;10530127;28;20101;-81
2023/09/12 21:41:50;;;;;;;6.43;3.40;;;;;;;;;;10498438;28;20460;-82
2023/09/12 21:46:57;;;;;;;4.22;2.10;;;;;;;;;;10525931;28;20464;-81
2023/09/12 21:52:05;;;;;;;4.55;2.80;;;;;;;;;;10492561;28;20571;-82
2023/09/12 21:57:19;;;;;;;4.43;2.80;;;;;;;;;;10517686;28;20485;-82
2023/09/12 22:02:42;;;;;;;4.68;2.58;;;;;;;;;;10508495;28;20040;-82
2023/09/12 22:07:45;;;;;;;;;;;;;;;;;;10527645;28;20589;-82
2023/09/12 22:12:58;;;;;;;4.68;2.17;;;;;;;;;;10523059;28;19972;-81
2023/09/12 22:18:06;;;;;;;6.50;2.45;;;;;;;;;;10518383;28;20113;-84
2023/09/12 22:23:11;;;;;;;5.68;2.50;;;;;;;;;;10513938;28;20135;-81
2023/09/12 22:28:32;;;;;;;5.35;2.67;;;;;;;;;;10505364;28;20040;-81
2023/09/12 22:33:38;;;;;;;4.80;2.38;;;;;;;;;;10520743;28;20040;-83
2023/09/12 22:38:51;;;;;;;4.38;2.58;;;;;;;;;;10526229;28;20072;-82
2023/09/12 22:43:58;;;;;;;4.78;2.35;;;;;;;;;;10524647;28;20036;-81
2023/09/12 22:49:05;;;;;;;11.55;2.88;;;;;;;;;;10498372;28;20141;-82
2023/09/12 22:54:14;;;;;;;4.43;2.30;;;;;;;;;;10497465;28;20417;-82
2023/09/12 22:59:18;;;;;;;7.45;2.50;;;;;;;;;;10484813;28;20048;-81
2023/09/12 23:04:23;;;;;;;6.65;2.72;;;;;;;;;;10520899;28;20131;-83
2023/09/12 23:09:28;;;;;;;4.38;2.03;;;;;;;;;;10529233;28;20466;-85
2023/09/12 23:14:39;;;;;;;4.85;2.40;;;;;;;;;;10510822;28;20101;-84
2023/09/12 23:19:52;;;;;;;6.60;2.80;;;;;;;;;;10541741;28;20543;-86
2023/09/12 23:25:00;;;;;;;7.43;2.80;;;;;;;;;;10511238;28;20793;-88
2023/09/12 23:30:21;;;;;;;5.68;2.33;;;;;;;;;;10542678;28;20377;-86
2023/09/12 23:35:33;;;;;;;7.65;2.30;;;;;;;;;;10512236;28;20432;-85
2023/09/12 23:40:38;;;;;;;4.32;2.17;;;;;;;;;;10525491;28;20040;-85
2023/09/12 23:45:49;;;;;;;4.68;2.08;;;;;;;;;;10507408;28;20036;-86
2023/09/12 23:51:03;;;;;;;5.80;2.28;;;;;;;;;;10530150;28;20168;-87
2023/09/12 23:56:31;;;;;;;4.30;1.90;;;;;;;;;;10523515;28;20078;-92
